createdAt,value
2022-10-23T00:01:12.327Z,97778.00
2022-10-23T00:03:39.116Z,97772.22
2022-10-23T00:06:06.137Z,97789.75
2022-10-23T00:08:32.671Z,97772.25
2022-10-23T00:10:59.394Z,97778.00
2022-10-23T00:13:25.966Z,97775.94
2022-10-23T00:18:23.856Z,97777.16
2022-10-23T00:20:50.387Z,97791.00
2022-10-23T00:23:17.629Z,97781.34
2022-10-23T00:25:44.153Z,97780.84
2022-10-23T00:28:10.984Z,97783.91
2022-10-23T00:30:37.481Z,97785.41
2022-10-23T00:33:03.987Z,97789.84
2022-10-23T00:35:30.497Z,97780.16
2022-10-23T00:37:57.034Z,97792.56
2022-10-23T00:40:23.658Z,97786.09
2022-10-23T00:42:50.173Z,97793.25
2022-10-23T00:45:26.974Z,97790.81
2022-10-23T00:47:54.870Z,97793.97
2022-10-23T00:50:24.192Z,97773.53
2022-10-23T00:52:52.915Z,97777.72
2022-10-23T00:55:21.372Z,97773.19
2022-10-23T00:57:49.831Z,97779.50
2022-10-23T01:00:29.356Z,97772.41
2022-10-23T01:02:57.459Z,97772.06
2022-10-23T01:05:44.801Z,97784.94
2022-10-23T01:08:23.115Z,97786.16
2022-10-23T01:10:58.619Z,97799.66
2022-10-23T01:13:34.405Z,97797.31
2022-10-23T01:16:17.385Z,97794.16
2022-10-23T01:19:21.291Z,97780.66
2022-10-23T01:22:13.349Z,97786.25
2022-10-23T01:24:59.539Z,97788.56
2022-10-23T01:27:48.347Z,97800.38
2022-10-23T01:30:17.091Z,97805.38
2022-10-23T01:32:56.647Z,97798.88
2022-10-23T01:35:29.143Z,97800.47
2022-10-23T01:38:07.670Z,97802.03
2022-10-23T01:40:42.638Z,97803.06
2022-10-23T01:43:16.875Z,97804.47
2022-10-23T01:45:47.724Z,97794.31
2022-10-23T01:48:18.062Z,97788.09
2022-10-23T01:50:46.551Z,97789.75
2022-10-23T01:53:13.144Z,97790.31
2022-10-23T01:58:16.043Z,97805.53
2022-10-23T02:00:45.633Z,97809.13
2022-10-23T02:03:15.600Z,97804.75
2022-10-23T02:05:44.128Z,97807.13
2022-10-23T02:08:11.075Z,97807.09
2022-10-23T02:10:49.347Z,97801.56
2022-10-23T02:13:46.436Z,97797.78
2022-10-23T02:16:20.376Z,97809.97
2022-10-23T02:18:59.232Z,97806.13
2022-10-23T02:22:04.228Z,97804.97
2022-10-23T02:24:43.579Z,97802.38
2022-10-23T02:27:18.178Z,97797.09
2022-10-23T02:29:51.168Z,97794.56
2022-10-23T02:32:20.691Z,97779.94
2022-10-23T02:34:47.985Z,97791.59
2022-10-23T02:37:15.246Z,97798.00
2022-10-23T02:39:42.079Z,97794.47
2022-10-23T02:42:17.359Z,97813.22
2022-10-23T02:44:50.107Z,97809.25
2022-10-23T02:47:40.991Z,97807.97
2022-10-23T02:50:07.662Z,97801.06
2022-10-23T02:52:41.951Z,97807.72
2022-10-23T02:55:16.615Z,97809.84
2022-10-23T02:57:55.983Z,97820.72
2022-10-23T03:00:23.296Z,97811.25
2022-10-23T03:03:03.267Z,97829.19
2022-10-23T03:05:36.228Z,97829.91
2022-10-23T03:08:05.314Z,97836.31
2022-10-23T03:10:32.070Z,97836.88
2022-10-23T03:12:58.935Z,97825.81
2022-10-23T03:15:25.526Z,97847.66
2022-10-23T03:17:52.115Z,97851.53
2022-10-23T03:20:19.127Z,97846.50
2022-10-23T03:22:46.044Z,97849.75
2022-10-23T03:25:12.793Z,97848.66
2022-10-23T03:27:39.314Z,97856.72
2022-10-23T03:30:07.291Z,97853.69
2022-10-23T03:32:34.020Z,97854.19
2022-10-23T03:35:00.651Z,97854.53
2022-10-23T03:37:27.188Z,97835.97
2022-10-23T03:39:53.683Z,97849.81
2022-10-23T03:42:20.227Z,97848.59
2022-10-23T03:44:46.754Z,97845.66
2022-10-23T03:47:13.345Z,97840.75
2022-10-23T03:49:40.262Z,97844.13
2022-10-23T03:52:07.933Z,97836.59
2022-10-23T03:54:35.024Z,97839.56
2022-10-23T03:57:01.848Z,97842.72
2022-10-23T03:59:28.447Z,97845.59
2022-10-23T04:01:55.363Z,97847.16
2022-10-23T04:04:22.156Z,97862.75
2022-10-23T04:06:48.698Z,97869.84
2022-10-23T04:09:15.752Z,97881.75
2022-10-23T04:11:42.240Z,97886.25
2022-10-23T04:14:12.335Z,97880.06
2022-10-23T04:16:39.152Z,97878.16
2022-10-23T04:19:05.764Z,97881.94
2022-10-23T04:21:32.336Z,97879.06
2022-10-23T04:23:58.852Z,97872.75
2022-10-23T04:26:25.372Z,97876.91
2022-10-23T04:28:51.967Z,97871.75
2022-10-23T04:31:19.661Z,97884.09
2022-10-23T04:33:46.276Z,97887.25
2022-10-23T04:36:12.885Z,97887.63
2022-10-23T04:38:39.415Z,97891.34
2022-10-23T04:41:06.257Z,97892.13
2022-10-23T04:43:32.766Z,97889.34
2022-10-23T04:45:59.402Z,97883.97
2022-10-23T04:48:28.458Z,97894.50
2022-10-23T04:50:57.595Z,97889.72
2022-10-23T04:53:25.004Z,97893.91
2022-10-23T04:55:51.853Z,97891.22
2022-10-23T04:58:19.032Z,97889.63
2022-10-23T05:00:46.550Z,97894.66
2022-10-23T05:03:13.519Z,97896.88
2022-10-23T05:05:40.800Z,97891.28
2022-10-23T05:08:07.668Z,97895.16
2022-10-23T05:10:34.437Z,97882.81
2022-10-23T05:13:01.419Z,97895.53
2022-10-23T05:15:27.974Z,97890.06
2022-10-23T05:17:59.915Z,97891.06
2022-10-23T05:20:31.795Z,97893.31
2022-10-23T05:23:00.554Z,97895.75
2022-10-23T05:25:27.130Z,97895.75
2022-10-23T05:27:53.672Z,97907.06
2022-10-23T05:30:20.238Z,97908.78
2022-10-23T05:32:46.995Z,97914.53
2022-10-23T05:35:19.234Z,97932.97
2022-10-23T05:37:47.919Z,97927.38
2022-10-23T05:40:14.575Z,97938.19
2022-10-23T05:42:41.815Z,97942.09
2022-10-23T05:45:09.307Z,97933.34
2022-10-23T05:47:35.804Z,97942.72
2022-10-23T05:50:02.327Z,97952.94
2022-10-23T05:52:28.928Z,97946.00
2022-10-23T05:54:55.520Z,97955.22
2022-10-23T05:57:22.113Z,97952.44
2022-10-23T05:59:48.621Z,97951.94
2022-10-23T06:02:15.171Z,97952.13
2022-10-23T06:04:41.725Z,97956.53
2022-10-23T06:07:08.268Z,97956.19
2022-10-23T06:09:34.822Z,97957.69
2022-10-23T06:12:02.744Z,97963.22
2022-10-23T06:14:29.286Z,97978.22
2022-10-23T06:16:55.871Z,97982.97
2022-10-23T06:19:22.472Z,97981.41
2022-10-23T06:21:49.000Z,97979.03
2022-10-23T06:24:15.560Z,97977.78
2022-10-23T06:26:42.064Z,97974.56
2022-10-23T06:29:08.631Z,97976.41
2022-10-23T06:31:35.190Z,97977.03
2022-10-23T06:34:01.746Z,97988.88
2022-10-23T06:36:28.415Z,97986.81
2022-10-23T06:38:56.461Z,97989.50
2022-10-23T06:41:23.393Z,97992.19
2022-10-23T06:43:51.521Z,97990.72
2022-10-23T06:46:19.228Z,98007.53
2022-10-23T06:48:45.830Z,98005.94
2022-10-23T06:51:14.142Z,98010.91
2022-10-23T06:53:41.430Z,98007.56
2022-10-23T06:56:09.139Z,98009.06
2022-10-23T06:58:37.404Z,97999.84
2022-10-23T07:01:07.075Z,98008.69
2022-10-23T07:03:34.881Z,97998.63
2022-10-23T07:06:06.878Z,97995.78
2022-10-23T07:08:33.774Z,97996.44
2022-10-23T07:11:08.849Z,97999.41
2022-10-23T07:13:36.965Z,98002.38
2022-10-23T07:16:18.217Z,98011.81
2022-10-23T07:18:46.288Z,98010.56
2022-10-23T07:21:12.936Z,97997.59
2022-10-23T07:23:39.586Z,98008.16
2022-10-23T07:26:14.292Z,98003.44
2022-10-23T07:28:41.642Z,98005.69
2022-10-23T07:31:08.318Z,98009.81
2022-10-23T07:33:34.850Z,98002.28
2022-10-23T07:36:03.658Z,98004.13
2022-10-23T07:38:30.195Z,97995.16
2022-10-23T07:40:59.204Z,97996.84
2022-10-23T07:43:26.267Z,97989.75
2022-10-23T07:45:54.142Z,97987.50
2022-10-23T07:48:21.820Z,97987.44
2022-10-23T07:50:48.340Z,97980.66
2022-10-23T07:53:18.669Z,97976.66
2022-10-23T07:55:54.039Z,97970.84
2022-10-23T07:58:21.024Z,97968.56
2022-10-23T08:00:58.924Z,97972.72
2022-10-23T08:03:27.337Z,97969.66
2022-10-23T08:05:54.887Z,97954.53
2022-10-23T08:08:22.730Z,97952.47
2022-10-23T08:10:50.788Z,97946.50
2022-10-23T08:13:20.324Z,97942.59
2022-10-23T08:15:48.393Z,97933.06
2022-10-23T08:18:15.446Z,97937.44
2022-10-23T08:20:43.031Z,97935.59
2022-10-23T08:23:12.330Z,97925.16
2022-10-23T08:25:40.328Z,97925.59
2022-10-23T08:28:08.030Z,97921.34
2022-10-23T08:30:35.157Z,97949.88
2022-10-23T08:33:06.500Z,97946.75
2022-10-23T08:35:37.756Z,97940.06
2022-10-23T08:38:05.588Z,97947.00
2022-10-23T08:40:32.873Z,97944.31
2022-10-23T08:43:19.051Z,97943.88
2022-10-23T08:45:47.827Z,97942.09
2022-10-23T08:48:30.220Z,97969.13
2022-10-23T08:51:05.401Z,97968.53
2022-10-23T08:53:36.579Z,97972.22
2022-10-23T08:56:09.391Z,97975.72
2022-10-23T08:58:35.896Z,97970.84
2022-10-23T09:01:18.393Z,97972.22
2022-10-23T09:03:45.075Z,97973.78
2022-10-23T09:06:34.452Z,97976.59
2022-10-23T09:09:25.629Z,97968.34
2022-10-23T09:12:15.209Z,97955.44
2022-10-23T09:15:25.758Z,97952.63
2022-10-23T09:17:59.866Z,97957.41
2022-10-23T09:20:31.565Z,97960.41
2022-10-23T09:23:01.861Z,97953.41
2022-10-23T09:25:33.834Z,97957.38
2022-10-23T09:28:05.236Z,97943.28
2022-10-23T09:30:42.339Z,97947.09
2022-10-23T09:33:21.812Z,97948.50
2022-10-23T09:35:58.669Z,97942.50
2022-10-23T09:38:38.804Z,97947.53
2022-10-23T09:41:19.249Z,97953.38
2022-10-23T09:43:46.366Z,97930.88
2022-10-23T09:46:12.952Z,97932.81
2022-10-23T09:48:42.380Z,97940.22
2022-10-23T09:51:21.886Z,97932.00
2022-10-23T09:53:53.013Z,97924.13
2022-10-23T09:56:28.330Z,97920.03
2022-10-23T09:59:02.348Z,97918.06
2022-10-23T10:01:36.301Z,97908.63
2022-10-23T10:04:03.220Z,97894.22
2022-10-23T10:06:33.804Z,97901.84
2022-10-23T10:09:05.715Z,97897.94
2022-10-23T10:11:43.463Z,97907.69
2022-10-23T10:14:45.000Z,97899.69
2022-10-23T10:17:17.586Z,97898.06
2022-10-23T10:20:03.856Z,97888.91
2022-10-23T10:23:03.707Z,97893.13
2022-10-23T10:25:52.143Z,97885.91
2022-10-23T10:28:18.868Z,97883.72
2022-10-23T10:31:03.899Z,97869.22
2022-10-23T10:33:45.578Z,97871.16
2022-10-23T10:36:40.050Z,97869.66
2022-10-23T10:39:21.644Z,97872.25
2022-10-23T10:41:57.160Z,97869.06
2022-10-23T10:44:26.671Z,97869.66
2022-10-23T10:47:15.939Z,97856.31
2022-10-23T10:50:03.092Z,97860.38
2022-10-23T10:52:36.941Z,97841.88
2022-10-23T10:55:18.369Z,97842.16
2022-10-23T10:57:54.949Z,97838.84
2022-10-23T11:00:23.939Z,97828.31
2022-10-23T11:03:02.814Z,97830.91
2022-10-23T11:05:33.597Z,97840.88
2022-10-23T11:08:07.274Z,97839.16
2022-10-23T11:10:36.233Z,97841.56
2022-10-23T11:13:04.356Z,97835.28
2022-10-23T11:15:40.823Z,97831.53
2022-10-23T11:18:19.447Z,97823.47
2022-10-23T11:21:30.604Z,97822.09
2022-10-23T11:24:24.523Z,97807.31
2022-10-23T11:27:02.919Z,97804.50
2022-10-23T11:29:44.496Z,97803.41
2022-10-23T11:32:29.285Z,97788.19
2022-10-23T11:34:55.823Z,97792.09
2022-10-23T11:37:24.626Z,97792.56
2022-10-23T11:40:06.392Z,97799.69
2022-10-23T11:42:46.892Z,97780.88
2022-10-23T11:45:28.640Z,97774.34
2022-10-23T11:47:59.875Z,97776.16
2022-10-23T11:50:29.763Z,97774.78
2022-10-23T11:53:14.651Z,97765.84
2022-10-23T11:56:03.044Z,97755.50
2022-10-23T11:58:57.379Z,97748.28
2022-10-23T12:01:45.582Z,97751.16
2022-10-23T12:04:15.417Z,97748.16
2022-10-23T12:06:46.522Z,97740.97
2022-10-23T12:09:46.627Z,97742.56
2022-10-23T12:12:16.639Z,97742.56
2022-10-23T12:14:51.267Z,97732.78
2022-10-23T12:17:23.754Z,97731.09
2022-10-23T12:19:55.394Z,97725.78
2022-10-23T12:22:27.913Z,97716.63
2022-10-23T12:25:11.553Z,97711.50
2022-10-23T12:27:52.814Z,97713.69
2022-10-23T12:30:21.386Z,97714.31
2022-10-23T12:33:03.254Z,97711.06
2022-10-23T12:35:48.975Z,97707.31
2022-10-23T12:38:20.249Z,97707.31
2022-10-23T12:40:52.564Z,97709.97
2022-10-23T12:43:32.423Z,97705.13
2022-10-23T12:46:17.733Z,97708.53
2022-10-23T12:48:53.516Z,97706.66
2022-10-23T12:51:24.193Z,97715.50
2022-10-23T12:53:51.374Z,97717.25
2022-10-23T12:56:18.650Z,97714.31
2022-10-23T12:58:50.409Z,97697.06
2022-10-23T13:01:43.925Z,97686.88
2022-10-23T13:04:10.820Z,97701.78
2022-10-23T13:06:39.619Z,97704.09
2022-10-23T13:09:15.226Z,97705.66
2022-10-23T13:11:42.575Z,97703.22
2022-10-23T13:14:30.002Z,97700.91
2022-10-23T13:17:06.547Z,97707.13
2022-10-23T13:19:33.820Z,97701.69
2022-10-23T13:22:02.873Z,97702.53
2022-10-23T13:24:31.143Z,97688.16
2022-10-23T13:26:59.021Z,97691.81
2022-10-23T13:31:57.632Z,97704.19
2022-10-23T13:34:26.844Z,97699.44
2022-10-23T13:36:56.068Z,97699.84
2022-10-23T13:39:33.865Z,97698.13
2022-10-23T13:42:10.567Z,97701.59
2022-10-23T13:44:38.020Z,97695.63
2022-10-23T13:47:05.390Z,97704.16
2022-10-23T13:49:32.110Z,97705.88
2022-10-23T13:52:01.419Z,97702.44
2022-10-23T13:54:29.152Z,97707.81
2022-10-23T13:56:56.864Z,97703.69
2022-10-23T13:59:24.005Z,97714.38
2022-10-23T14:01:51.227Z,97702.63
2022-10-23T14:04:18.862Z,97715.50
2022-10-23T14:06:45.816Z,97717.34
2022-10-23T14:09:17.768Z,97715.50
2022-10-23T14:11:44.965Z,97723.09
2022-10-23T14:14:11.371Z,97719.75
2022-10-23T14:16:37.906Z,97715.13
2022-10-23T14:19:04.522Z,97717.03
2022-10-23T14:21:31.110Z,97715.34
2022-10-23T14:23:57.740Z,97717.97
2022-10-23T14:26:27.592Z,97714.88
2022-10-23T14:28:56.052Z,97716.91
2022-10-23T14:31:23.832Z,97717.03
2022-10-23T14:33:56.048Z,97718.72
2022-10-23T14:36:23.144Z,97726.22
2022-10-23T14:38:53.559Z,97724.03
2022-10-23T14:41:22.238Z,97725.69
2022-10-23T14:43:48.745Z,97738.28
2022-10-23T14:46:17.606Z,97728.81
2022-10-23T14:48:46.252Z,97725.81
2022-10-23T14:51:18.089Z,97733.38
2022-10-23T14:53:45.427Z,97733.63
2022-10-23T14:56:12.141Z,97735.72
2022-10-23T14:58:38.760Z,97730.84
2022-10-23T15:01:05.503Z,97741.78
2022-10-23T15:03:32.163Z,97734.06
2022-10-23T15:05:58.778Z,97742.91
2022-10-23T15:08:25.520Z,97737.25
2022-10-23T15:10:52.059Z,97738.81
2022-10-23T15:13:18.673Z,97747.94
2022-10-23T15:15:45.376Z,97747.94
2022-10-23T15:18:11.957Z,97742.47
2022-10-23T15:20:38.547Z,97747.91
2022-10-23T15:23:05.079Z,97743.72
2022-10-23T15:25:31.644Z,97754.63
2022-10-23T15:27:58.155Z,97751.75
2022-10-23T15:30:24.717Z,97751.97
2022-10-23T15:32:51.309Z,97756.59
2022-10-23T15:35:17.900Z,97752.34
2022-10-23T15:37:44.772Z,97754.88
2022-10-23T15:40:11.929Z,97751.22
2022-10-23T15:42:38.478Z,97760.44
2022-10-23T15:45:05.484Z,97756.47
2022-10-23T15:47:32.015Z,97763.94
2022-10-23T15:49:58.568Z,97757.53
2022-10-23T15:52:25.116Z,97761.59
2022-10-23T15:54:51.646Z,97764.06
2022-10-23T15:57:18.208Z,97763.53
2022-10-23T15:59:44.734Z,97763.66
2022-10-23T16:02:11.949Z,97768.19
2022-10-23T16:04:38.485Z,97766.09
2022-10-23T16:07:05.039Z,97772.44
2022-10-23T16:09:32.948Z,97775.06
2022-10-23T16:11:59.590Z,97779.50
2022-10-23T16:14:26.094Z,97782.22
2022-10-23T16:16:52.721Z,97792.28
2022-10-23T16:19:19.496Z,97784.31
2022-10-23T16:21:46.086Z,97797.19
2022-10-23T16:24:12.721Z,97799.34
2022-10-23T16:26:39.704Z,97793.69
2022-10-23T16:29:08.184Z,97802.41
2022-10-23T16:31:35.682Z,97797.13
2022-10-23T16:34:16.604Z,97809.88
2022-10-23T16:36:43.282Z,97813.59
2022-10-23T16:39:50.655Z,97805.53
2022-10-23T16:44:44.491Z,97819.69
2022-10-23T16:47:11.081Z,97814.97
2022-10-23T16:49:37.606Z,97821.28
2022-10-23T16:52:04.260Z,97813.56
2022-10-23T16:54:30.831Z,97824.31
2022-10-23T16:56:58.631Z,97816.72
2022-10-23T16:59:25.198Z,97827.78
2022-10-23T17:01:51.952Z,97833.78
2022-10-23T17:04:18.685Z,97838.47
2022-10-23T17:06:45.504Z,97839.72
2022-10-23T17:09:12.221Z,97846.56
2022-10-23T17:11:40.507Z,97852.31
2022-10-23T17:14:12.017Z,97849.25
2022-10-23T17:16:48.212Z,97847.75
2022-10-23T17:19:33.005Z,97846.16
2022-10-23T17:22:03.497Z,97834.28
2022-10-23T17:24:29.901Z,97835.25
2022-10-23T17:26:57.021Z,97829.94
2022-10-23T17:29:23.630Z,97831.75
2022-10-23T17:31:51.406Z,97827.91
2022-10-23T17:34:21.578Z,97830.81
2022-10-23T17:36:52.188Z,97835.38
2022-10-23T17:39:22.253Z,97841.34
2022-10-23T17:41:49.654Z,97844.84
2022-10-23T17:44:16.202Z,97848.44
2022-10-23T17:46:43.159Z,97849.16
2022-10-23T17:49:10.792Z,97855.75
2022-10-23T17:51:37.649Z,97855.03
2022-10-23T17:54:07.194Z,97855.47
2022-10-23T17:56:36.538Z,97855.78
2022-10-23T17:59:09.782Z,97849.19
2022-10-23T18:01:36.709Z,97864.59
2022-10-23T18:04:05.585Z,97853.63
2022-10-23T18:06:35.657Z,97847.31
2022-10-23T18:09:04.638Z,97857.72
2022-10-23T18:11:34.583Z,97854.28
2022-10-23T18:14:01.692Z,97849.28
2022-10-23T18:16:28.615Z,97847.28
2022-10-23T18:18:55.670Z,97850.28
2022-10-23T18:21:24.016Z,97858.16
2022-10-23T18:23:51.447Z,97861.13
2022-10-23T18:26:19.952Z,97860.63
2022-10-23T18:28:48.336Z,97850.91
2022-10-23T18:31:16.571Z,97852.16
2022-10-23T18:33:43.327Z,97853.91
2022-10-23T18:36:22.609Z,97855.59
2022-10-23T18:38:50.309Z,97855.16
2022-10-23T18:41:18.026Z,97862.97
2022-10-23T18:43:44.901Z,97862.50
2022-10-23T18:46:15.260Z,97862.81
2022-10-23T18:48:42.710Z,97859.97
2022-10-23T18:51:21.953Z,97860.56
2022-10-23T18:53:49.170Z,97869.06
2022-10-23T18:56:22.052Z,97862.78
2022-10-23T18:58:53.704Z,97864.44
2022-10-23T19:01:21.073Z,97863.97
2022-10-23T19:03:47.818Z,97863.06
2022-10-23T19:06:15.162Z,97860.69
2022-10-23T19:08:43.558Z,97866.16
2022-10-23T19:11:11.826Z,97879.44
2022-10-23T19:13:39.603Z,97868.59
2022-10-23T19:16:22.348Z,97882.06
2022-10-23T19:19:15.099Z,97878.28
2022-10-23T19:21:42.499Z,97884.22
2022-10-23T19:24:12.047Z,97882.59
2022-10-23T19:26:40.447Z,97888.13
2022-10-23T19:29:09.895Z,97887.81
2022-10-23T19:31:36.603Z,97888.59
2022-10-23T19:34:03.648Z,97883.63
2022-10-23T19:36:31.824Z,97885.19
2022-10-23T19:38:58.436Z,97890.63
2022-10-23T19:41:25.027Z,97889.13
2022-10-23T19:43:51.551Z,97879.91
2022-10-23T19:46:18.112Z,97890.25
2022-10-23T19:48:46.415Z,97891.50
2022-10-23T19:51:13.558Z,97899.28
2022-10-23T19:53:41.964Z,97902.88
2022-10-23T19:56:10.883Z,97902.97
2022-10-23T19:58:38.009Z,97908.22
2022-10-23T20:01:13.840Z,97905.88
2022-10-23T20:03:41.792Z,97904.69
2022-10-23T20:06:13.519Z,97906.91
2022-10-23T20:08:41.286Z,97909.53
2022-10-23T20:11:09.326Z,97905.34
2022-10-23T20:13:36.199Z,97903.50
2022-10-23T20:16:02.705Z,97905.69
2022-10-23T20:18:29.359Z,97903.47
2022-10-23T20:20:55.925Z,97911.47
2022-10-23T20:23:22.849Z,97905.63
2022-10-23T20:25:49.393Z,97909.34
2022-10-23T20:28:16.048Z,97899.59
2022-10-23T20:30:42.675Z,97914.94
2022-10-23T20:33:09.405Z,97913.25
2022-10-23T20:35:42.595Z,97908.03
2022-10-23T20:38:09.649Z,97909.97
2022-10-23T20:40:36.216Z,97913.44
2022-10-23T20:43:03.345Z,97918.75
2022-10-23T20:45:29.912Z,97913.34
2022-10-23T20:47:56.818Z,97906.25
2022-10-23T20:50:23.928Z,97915.66
2022-10-23T20:52:50.899Z,97907.88
2022-10-23T20:55:18.108Z,97905.63
2022-10-23T20:57:44.933Z,97905.41
2022-10-23T21:00:12.317Z,97912.41
2022-10-23T21:02:38.901Z,97909.72
2022-10-23T21:05:05.992Z,97907.22
2022-10-23T21:07:32.527Z,97914.66
2022-10-23T21:09:59.399Z,97919.94
2022-10-23T21:12:25.900Z,97912.06
2022-10-23T21:14:53.579Z,97918.34
2022-10-23T21:17:20.420Z,97913.63
2022-10-23T21:19:47.129Z,97913.28
2022-10-23T21:22:13.706Z,97927.03
2022-10-23T21:24:40.249Z,97928.75
2022-10-23T21:27:06.843Z,97923.00
2022-10-23T21:29:33.392Z,97924.91
2022-10-23T21:32:01.650Z,97924.34
2022-10-23T21:34:29.342Z,97932.66
2022-10-23T21:39:46.333Z,97924.13
2022-10-23T21:42:14.124Z,97924.13
2022-10-23T21:44:40.942Z,97927.16
2022-10-23T21:47:07.479Z,97924.47
2022-10-23T21:49:34.056Z,97922.41
2022-10-23T21:52:00.548Z,97923.41
2022-10-23T21:54:27.147Z,97925.06
2022-10-23T21:56:54.021Z,97924.63
2022-10-23T21:59:24.318Z,97926.63
2022-10-23T22:01:52.060Z,97920.50
2022-10-23T22:04:19.781Z,97930.34
2022-10-23T22:06:48.754Z,97934.03
2022-10-23T22:09:19.196Z,97934.75
2022-10-23T22:11:45.943Z,97935.72
2022-10-23T22:14:12.509Z,97937.22
2022-10-23T22:16:39.050Z,97932.69
2022-10-23T22:19:05.644Z,97933.25
2022-10-23T22:21:32.198Z,97944.50
2022-10-23T22:24:00.334Z,97948.69
2022-10-23T22:26:28.891Z,97943.41
2022-10-23T22:28:58.288Z,97946.81
2022-10-23T22:31:27.899Z,97943.50
2022-10-23T22:33:55.560Z,97941.94
2022-10-23T22:36:22.062Z,97951.38
2022-10-23T22:38:48.738Z,97944.00
2022-10-23T22:41:16.008Z,97949.81
2022-10-23T22:43:42.657Z,97955.81
2022-10-23T22:46:15.337Z,97948.75
2022-10-23T22:48:42.478Z,97955.06
2022-10-23T22:51:12.125Z,97962.91
2022-10-23T22:53:38.725Z,97964.41
2022-10-23T22:56:10.052Z,97964.81
2022-10-23T22:58:37.116Z,97950.00
2022-10-23T23:01:12.141Z,97958.56
2022-10-23T23:03:38.951Z,97952.94
2022-10-23T23:06:06.822Z,97955.22
2022-10-23T23:08:34.923Z,97959.41
2022-10-23T23:11:01.570Z,97944.34
2022-10-23T23:13:28.211Z,97943.88
2022-10-23T23:15:55.169Z,97941.34
2022-10-23T23:18:22.351Z,97944.88
2022-10-23T23:20:49.155Z,97951.22
2022-10-23T23:23:15.776Z,97951.75
2022-10-23T23:25:48.463Z,97951.22
2022-10-23T23:28:16.883Z,97956.75
2022-10-23T23:30:43.522Z,97960.16
2022-10-23T23:33:11.776Z,97953.69
2022-10-23T23:35:46.115Z,97955.97
2022-10-23T23:38:13.234Z,97960.72
2022-10-23T23:40:40.496Z,97961.94
2022-10-23T23:43:07.076Z,97960.31
2022-10-23T23:45:33.596Z,97961.53
2022-10-23T23:48:00.163Z,97975.75
2022-10-23T23:50:28.003Z,97970.56
2022-10-23T23:52:54.523Z,97968.72
2022-10-23T23:55:21.048Z,97958.44
2022-10-23T23:57:47.984Z,97951.59
